Terminal Aerodrome Forecast
Issued by NWS

Home | Current Version | Previous Version | Graphics & Text | Print | Product List | Glossary Off
Versions: 1 2 3 4 5 6 7 8 9 10 11 12 13 14 15 16 17 18 19 20 21 22 23 24

631
FTUS43 KDDC 041720
TAFGCK
TAF
KGCK 041720Z 0418/0518 27010KT P6SM SKC
     FM041900 28010G20KT P6SM SCT250
     FM050000 VRB04KT P6SM OVC250
     FM050600 08007KT P6SM OVC150
     FM051200 08008KT P6SM OVC090=

USA.gov is the U.S. government's official web portal to all federal, state and local government web resources and services.